LIN weather

Milano Linate Airport
Milan, Lombardy, Italy

Public forecast

Using degrees Celsius for public forecast. Weather courtesy of forecast.io.

Current aviation weather report (METAR) for Milano Linate Airport

Retrieved 2020/04/05 13:50 UTC (27 minutes ago):

LIML 051350Z VRB04KT CAVOK 18/02 Q1023 NOSIG

Aviation forecast (TAF) for Milano Linate Airport

Retrieved 2020/04/05 12:23 UTC (2 hours ago):

TAF LIML 051100Z 0512/0612 VRB04KT CAVOK